KAL2001 RKSI-VHHH
Flight info
| Callsign | KAL2001 |
|---|---|
| Flight time | N/A |
| Altitude | 34000 |
| Route | BOPTA3C BOPTA Z51 BEDES Y711 MUGUS Y742 SALMI Q11 DRAKE A1 ELATO V522 ABBEY ABBEY4A |
| Aircraft | B77W/H-SDE1E2E3FGHIJ2J3J4J5M1RWXY/LB1D1 |
Departure
| Time | 2026-05-05 22:01 |
|---|---|
| Airport | Incheon International Airport (RKSI) |
Arrival
| Time | N/A |
|---|---|
| Airport | Hong Kong International Airport (VHHH) |
| Time | Latitude | Longitude | Altitude | Speed | Heading |
|---|---|---|---|---|---|
| 2026-05-05 22:01 | 37.41981 | 126.45860 | 2319 ft | 208 kts | 153° |
| 2026-05-05 22:01 | 37.40699 | 126.46820 | 2775 ft | 225 kts | 153° |
| 2026-05-05 22:01 | 37.39301 | 126.47877 | 3281 ft | 244 kts | 153° |
| 2026-05-05 22:02 | 37.37687 | 126.48746 | 3841 ft | 256 kts | 167° |
| 2026-05-05 22:02 | 37.35966 | 126.49337 | 4627 ft | 262 kts | 168° |
| 2026-05-05 22:02 | 37.34181 | 126.49930 | 5455 ft | 268 kts | 168° |
| 2026-05-05 22:02 | 37.32377 | 126.50535 | 6165 ft | 276 kts | 168° |
| 2026-05-05 22:03 | 37.30490 | 126.51173 | 6964 ft | 282 kts | 168° |
| 2026-05-05 22:03 | 37.28691 | 126.51786 | 7763 ft | 285 kts | 165° |
| 2026-05-05 22:03 | 37.26864 | 126.52752 | 8565 ft | 290 kts | 153° |
| 2026-05-05 22:03 | 37.25086 | 126.53953 | 9371 ft | 293 kts | 151° |
| 2026-05-05 22:04 | 37.23301 | 126.55180 | 10158 ft | 296 kts | 151° |
| 2026-05-05 22:04 | 37.21449 | 126.56442 | 10737 ft | 308 kts | 151° |
| 2026-05-05 22:04 | 37.19512 | 126.57755 | 11154 ft | 326 kts | 151° |
| 2026-05-05 22:04 | 37.17473 | 126.59134 | 11673 ft | 341 kts | 151° |
| 2026-05-05 22:05 | 37.15349 | 126.60563 | 12169 ft | 356 kts | 153° |
| 2026-05-05 22:05 | 37.13030 | 126.61745 | 12647 ft | 371 kts | 162° |
| 2026-05-05 22:05 | 37.10443 | 126.62434 | 13015 ft | 389 kts | 173° |
| 2026-05-05 22:05 | 37.07690 | 126.62579 | 13067 ft | 400 kts | 180° |
| 2026-05-05 22:06 | 37.04886 | 126.62521 | 13063 ft | 402 kts | 180° |
| 2026-05-05 22:06 | 37.02088 | 126.62461 | 13068 ft | 402 kts | 180° |
| 2026-05-05 22:06 | 36.99287 | 126.62408 | 13061 ft | 402 kts | 180° |
| 2026-05-05 22:06 | 36.96472 | 126.62384 | 13147 ft | 413 kts | 179° |
| 2026-05-05 22:07 | 36.93608 | 126.62414 | 14056 ft | 414 kts | 179° |
| 2026-05-05 22:07 | 36.90762 | 126.62447 | 15201 ft | 410 kts | 179° |
| 2026-05-05 22:07 | 36.87907 | 126.62479 | 16056 ft | 413 kts | 180° |
| 2026-05-05 22:07 | 36.85031 | 126.62357 | 16694 ft | 421 kts | 183° |
| 2026-05-05 22:08 | 36.82076 | 126.62167 | 17418 ft | 426 kts | 183° |
| 2026-05-05 22:08 | 36.79105 | 126.61981 | 18178 ft | 430 kts | 183° |
| 2026-05-05 22:08 | 36.76102 | 126.61799 | 18919 ft | 435 kts | 183° |
| 2026-05-05 22:08 | 36.73080 | 126.61619 | 19593 ft | 440 kts | 183° |
| 2026-05-05 22:09 | 36.70018 | 126.61441 | 20253 ft | 446 kts | 183° |
| 2026-05-05 22:09 | 36.66910 | 126.61260 | 20930 ft | 450 kts | 183° |
| 2026-05-05 22:09 | 36.63768 | 126.61078 | 21570 ft | 455 kts | 183° |
| 2026-05-05 22:09 | 36.60596 | 126.60894 | 22162 ft | 461 kts | 183° |
| 2026-05-05 22:10 | 36.57346 | 126.60706 | 22781 ft | 466 kts | 183° |
| 2026-05-05 22:10 | 36.54111 | 126.60519 | 23369 ft | 471 kts | 183° |
| 2026-05-05 22:10 | 36.50844 | 126.60329 | 23967 ft | 475 kts | 183° |
| 2026-05-05 22:10 | 36.47535 | 126.60139 | 24555 ft | 479 kts | 182° |
| 2026-05-05 22:11 | 36.44203 | 126.60262 | 25108 ft | 485 kts | 174° |
| 2026-05-05 22:11 | 36.40874 | 126.61040 | 25625 ft | 490 kts | 164° |
| 2026-05-05 22:11 | 36.37635 | 126.62492 | 26133 ft | 496 kts | 155° |
| 2026-05-05 22:11 | 36.34644 | 126.64565 | 26684 ft | 500 kts | 145° |
| 2026-05-05 22:12 | 36.31918 | 126.67252 | 27209 ft | 503 kts | 136° |
| 2026-05-05 22:12 | 36.29355 | 126.70232 | 27658 ft | 509 kts | 140° |
| 2026-05-05 22:12 | 36.26465 | 126.72832 | 28201 ft | 512 kts | 147° |
| 2026-05-05 22:12 | 36.23385 | 126.75059 | 28740 ft | 515 kts | 152° |
| 2026-05-05 22:13 | 36.20202 | 126.76997 | 29234 ft | 519 kts | 156° |
| 2026-05-05 22:13 | 36.16837 | 126.78687 | 29790 ft | 520 kts | 162° |
| 2026-05-05 22:13 | 36.13327 | 126.79777 | 30445 ft | 518 kts | 172° |
| 2026-05-05 22:13 | 36.09789 | 126.80230 | 30991 ft | 517 kts | 180° |
| 2026-05-05 22:14 | 36.06171 | 126.80120 | 31087 ft | 518 kts | 186° |
| 2026-05-05 22:14 | 35.99003 | 126.79415 | 31095 ft | 512 kts | 186° |
| 2026-05-05 22:15 | 35.91936 | 126.78676 | 31093 ft | 515 kts | 187° |
| 2026-05-05 22:15 | 35.84747 | 126.77912 | 31094 ft | 512 kts | 187° |
| 2026-05-05 22:16 | 35.77644 | 126.77151 | 31087 ft | 513 kts | 187° |
| 2026-05-05 22:16 | 35.70532 | 126.76386 | 31086 ft | 512 kts | 187° |
| 2026-05-05 22:17 | 35.63444 | 126.75624 | 31089 ft | 512 kts | 187° |
| 2026-05-05 22:17 | 35.56377 | 126.74864 | 31090 ft | 512 kts | 187° |
| 2026-05-05 22:18 | 35.49265 | 126.74101 | 31088 ft | 512 kts | 187° |
| 2026-05-05 22:18 | 35.42184 | 126.73342 | 31102 ft | 513 kts | 187° |
| 2026-05-05 22:19 | 35.35090 | 126.72585 | 31092 ft | 511 kts | 187° |
| 2026-05-05 22:19 | 35.28014 | 126.71829 | 31097 ft | 511 kts | 187° |
| 2026-05-05 22:20 | 35.20893 | 126.71070 | 31101 ft | 512 kts | 187° |
| 2026-05-05 22:20 | 35.13824 | 126.70319 | 31104 ft | 510 kts | 187° |
| 2026-05-05 22:21 | 35.06755 | 126.69567 | 31107 ft | 512 kts | 187° |
| 2026-05-05 22:21 | 34.99655 | 126.68814 | 31104 ft | 511 kts | 187° |
| 2026-05-05 22:22 | 34.92556 | 126.68062 | 31106 ft | 512 kts | 187° |
| 2026-05-05 22:22 | 34.86652 | 126.67438 | 31105 ft | 512 kts | 187° |
| 2026-05-05 22:23 | 34.78373 | 126.66563 | 31100 ft | 511 kts | 187° |
| 2026-05-05 22:23 | 34.71325 | 126.65821 | 31105 ft | 510 kts | 187° |
| 2026-05-05 22:24 | 34.64250 | 126.65076 | 31099 ft | 511 kts | 187° |
| 2026-05-05 22:24 | 34.57188 | 126.64335 | 31100 ft | 510 kts | 187° |
| 2026-05-05 22:25 | 34.50091 | 126.63591 | 31092 ft | 509 kts | 187° |
| 2026-05-05 22:25 | 34.43047 | 126.62854 | 31100 ft | 507 kts | 187° |
| 2026-05-05 22:26 | 34.36023 | 126.62121 | 31101 ft | 508 kts | 187° |
| 2026-05-05 22:26 | 34.28957 | 126.61384 | 31094 ft | 508 kts | 188° |
| 2026-05-05 22:27 | 34.21918 | 126.60651 | 31094 ft | 506 kts | 187° |
| 2026-05-05 22:27 | 34.14925 | 126.59921 | 31097 ft | 508 kts | 188° |
| 2026-05-05 22:28 | 34.07914 | 126.59192 | 31088 ft | 504 kts | 188° |
| 2026-05-05 22:28 | 34.00936 | 126.58466 | 31097 ft | 506 kts | 188° |
| 2026-05-05 22:29 | 33.93894 | 126.57735 | 31106 ft | 504 kts | 188° |
| 2026-05-05 22:29 | 33.86910 | 126.57008 | 31079 ft | 504 kts | 189° |
| 2026-05-05 22:30 | 33.80201 | 126.55031 | 31101 ft | 494 kts | 203° |
| 2026-05-05 22:30 | 33.73690 | 126.52209 | 31089 ft | 497 kts | 203° |
| 2026-05-05 22:31 | 33.67253 | 126.49414 | 31098 ft | 492 kts | 204° |
| 2026-05-05 22:31 | 33.60739 | 126.46592 | 31097 ft | 496 kts | 204° |
| 2026-05-05 22:32 | 33.54270 | 126.43797 | 31101 ft | 491 kts | 203° |
| 2026-05-05 22:32 | 33.47848 | 126.41026 | 31104 ft | 494 kts | 204° |
| 2026-05-05 22:33 | 33.41396 | 126.38246 | 31097 ft | 493 kts | 204° |
| 2026-05-05 22:33 | 33.34936 | 126.35470 | 31085 ft | 490 kts | 204° |
| 2026-05-05 22:34 | 33.28532 | 126.32721 | 31100 ft | 492 kts | 203° |
| 2026-05-05 22:34 | 33.22122 | 126.29974 | 31101 ft | 488 kts | 203° |
| 2026-05-05 22:35 | 33.15752 | 126.27248 | 31099 ft | 488 kts | 203° |
| 2026-05-05 22:35 | 33.09340 | 126.24509 | 31096 ft | 491 kts | 202° |
| 2026-05-05 22:36 | 33.02891 | 126.21759 | 31099 ft | 488 kts | 202° |
| 2026-05-05 22:36 | 32.96508 | 126.19030 | 31097 ft | 487 kts | 203° |
| 2026-05-05 22:37 | 32.90128 | 126.16288 | 31097 ft | 489 kts | 203° |
| 2026-05-05 22:37 | 32.83759 | 126.13558 | 31094 ft | 484 kts | 203° |
| 2026-05-05 22:38 | 32.77391 | 126.10831 | 31092 ft | 488 kts | 203° |
| 2026-05-05 22:38 | 32.71057 | 126.08125 | 31093 ft | 482 kts | 203° |
| 2026-05-05 22:39 | 32.64721 | 126.05421 | 31098 ft | 482 kts | 203° |
| 2026-05-05 22:39 | 32.58437 | 126.02744 | 31098 ft | 480 kts | 203° |
| 2026-05-05 22:40 | 32.52152 | 126.00070 | 31088 ft | 480 kts | 203° |
| 2026-05-05 22:40 | 32.45922 | 125.97424 | 31095 ft | 478 kts | 203° |
| 2026-05-05 22:41 | 32.39657 | 125.94770 | 31091 ft | 478 kts | 203° |
| 2026-05-05 22:41 | 32.33380 | 125.92116 | 31095 ft | 478 kts | 203° |
| 2026-05-05 22:42 | 32.27114 | 125.89469 | 31096 ft | 476 kts | 203° |
| 2026-05-05 22:42 | 32.20874 | 125.86837 | 31095 ft | 475 kts | 203° |
| 2026-05-05 22:43 | 32.14660 | 125.84220 | 31093 ft | 476 kts | 203° |
| 2026-05-05 22:43 | 32.08442 | 125.81606 | 31090 ft | 472 kts | 203° |
| 2026-05-05 22:44 | 32.02272 | 125.79015 | 31092 ft | 474 kts | 203° |
| 2026-05-05 22:44 | 31.96042 | 125.76396 | 31086 ft | 472 kts | 203° |
| 2026-05-05 22:45 | 31.89875 | 125.73803 | 31087 ft | 475 kts | 203° |
| 2026-05-05 22:45 | 31.83683 | 125.71205 | 31092 ft | 469 kts | 203° |
| 2026-05-05 22:46 | 31.77522 | 125.68621 | 31089 ft | 474 kts | 203° |
| 2026-05-05 22:46 | 31.71324 | 125.66029 | 31087 ft | 469 kts | 204° |
| 2026-05-05 22:47 | 31.65179 | 125.63455 | 31086 ft | 469 kts | 204° |
| 2026-05-05 22:47 | 31.59029 | 125.60883 | 31083 ft | 469 kts | 204° |
| 2026-05-05 22:48 | 31.52886 | 125.58317 | 31078 ft | 467 kts | 204° |
| 2026-05-05 22:48 | 31.46796 | 125.55765 | 31083 ft | 467 kts | 204° |
| 2026-05-05 22:49 | 31.40682 | 125.53205 | 31078 ft | 465 kts | 204° |
| 2026-05-05 22:49 | 31.34559 | 125.50646 | 31076 ft | 465 kts | 204° |
| 2026-05-05 22:50 | 31.28487 | 125.48113 | 31074 ft | 460 kts | 204° |
| 2026-05-05 22:50 | 31.22428 | 125.45586 | 31072 ft | 462 kts | 204° |
| 2026-05-05 22:51 | 31.16414 | 125.43083 | 31072 ft | 459 kts | 204° |
| 2026-05-05 22:51 | 31.10391 | 125.40578 | 31066 ft | 461 kts | 204° |
| 2026-05-05 22:52 | 31.04328 | 125.38062 | 31070 ft | 461 kts | 204° |
| 2026-05-05 22:52 | 30.98306 | 125.35566 | 31065 ft | 459 kts | 204° |
| 2026-05-05 22:53 | 30.92263 | 125.33064 | 31072 ft | 461 kts | 203° |
| 2026-05-05 22:53 | 30.86278 | 125.30591 | 31080 ft | 456 kts | 203° |
| 2026-05-05 22:54 | 30.80267 | 125.28108 | 31081 ft | 458 kts | 203° |
| 2026-05-05 22:54 | 30.74246 | 125.25625 | 31075 ft | 459 kts | 203° |
| 2026-05-05 22:55 | 30.68298 | 125.23176 | 31076 ft | 456 kts | 203° |
| 2026-05-05 22:55 | 30.62292 | 125.20707 | 31074 ft | 453 kts | 203° |
| 2026-05-05 22:56 | 30.56378 | 125.18278 | 31076 ft | 452 kts | 203° |
| 2026-05-05 22:56 | 30.50415 | 125.15830 | 31079 ft | 454 kts | 203° |
| 2026-05-05 22:57 | 30.44493 | 125.13405 | 31075 ft | 450 kts | 203° |
| 2026-05-05 22:57 | 30.38570 | 125.10980 | 31074 ft | 452 kts | 203° |
| 2026-05-05 22:58 | 30.32640 | 125.08556 | 31072 ft | 446 kts | 203° |
| 2026-05-05 22:58 | 30.26778 | 125.06161 | 31072 ft | 452 kts | 202° |
| 2026-05-05 22:59 | 30.20869 | 125.03752 | 31066 ft | 448 kts | 202° |
| 2026-05-05 22:59 | 30.15058 | 125.01386 | 31072 ft | 443 kts | 202° |
| 2026-05-05 23:00 | 30.06259 | 124.97807 | 31068 ft | 444 kts | 203° |
| 2026-05-05 23:00 | 30.00428 | 124.95439 | 31069 ft | 448 kts | 203° |
| 2026-05-05 23:01 | 29.94566 | 124.92959 | 31061 ft | 446 kts | 204° |
| 2026-05-05 23:01 | 29.88765 | 124.90472 | 31069 ft | 443 kts | 204° |
| 2026-05-05 23:02 | 29.83006 | 124.88011 | 31069 ft | 440 kts | 204° |
| 2026-05-05 23:02 | 29.77227 | 124.85546 | 31068 ft | 443 kts | 204° |
| 2026-05-05 23:03 | 29.71441 | 124.83083 | 31061 ft | 441 kts | 204° |
| 2026-05-05 23:03 | 29.65646 | 124.80620 | 31062 ft | 442 kts | 204° |
| 2026-05-05 23:04 | 29.59881 | 124.78173 | 31057 ft | 443 kts | 204° |
| 2026-05-05 23:04 | 29.54060 | 124.75705 | 31057 ft | 445 kts | 204° |
| 2026-05-05 23:05 | 29.48256 | 124.73248 | 31051 ft | 441 kts | 204° |
| 2026-05-05 23:05 | 29.42470 | 124.70802 | 31050 ft | 443 kts | 204° |
| 2026-05-05 23:06 | 29.36712 | 124.68370 | 31053 ft | 441 kts | 204° |
| 2026-05-05 23:06 | 29.30984 | 124.65955 | 31049 ft | 439 kts | 204° |
| 2026-05-05 23:07 | 29.25192 | 124.63512 | 31047 ft | 443 kts | 203° |
| 2026-05-05 23:07 | 29.19436 | 124.61092 | 31040 ft | 438 kts | 204° |
| 2026-05-05 23:08 | 29.13662 | 124.58664 | 31037 ft | 441 kts | 204° |
| 2026-05-05 23:08 | 29.07939 | 124.56261 | 31036 ft | 439 kts | 204° |
| 2026-05-05 23:09 | 29.02172 | 124.53843 | 31032 ft | 440 kts | 203° |
| 2026-05-05 23:09 | 28.96480 | 124.51385 | 31023 ft | 437 kts | 208° |
| 2026-05-05 23:10 | 28.91277 | 124.47778 | 31033 ft | 438 kts | 217° |
| 2026-05-05 23:10 | 28.86299 | 124.43763 | 31036 ft | 436 kts | 217° |
| 2026-05-05 23:11 | 28.81321 | 124.39757 | 31035 ft | 439 kts | 217° |
| 2026-05-05 23:11 | 28.76334 | 124.35752 | 31038 ft | 440 kts | 217° |
| 2026-05-05 23:12 | 28.71284 | 124.31705 | 31049 ft | 439 kts | 217° |
| 2026-05-05 23:12 | 28.66303 | 124.27718 | 31050 ft | 441 kts | 217° |
| 2026-05-05 23:13 | 28.61266 | 124.23692 | 31043 ft | 442 kts | 216° |
| 2026-05-05 23:13 | 28.56226 | 124.19669 | 31038 ft | 442 kts | 216° |
| 2026-05-05 23:14 | 28.51201 | 124.15662 | 31037 ft | 442 kts | 217° |
| 2026-05-05 23:14 | 28.46123 | 124.11617 | 31035 ft | 444 kts | 216° |
| 2026-05-05 23:15 | 28.41090 | 124.07615 | 31033 ft | 442 kts | 216° |
| 2026-05-05 23:15 | 28.36027 | 124.03592 | 31024 ft | 444 kts | 216° |
| 2026-05-05 23:16 | 28.30858 | 123.99782 | 31019 ft | 444 kts | 208° |
| 2026-05-05 23:16 | 28.25178 | 123.96961 | 31022 ft | 445 kts | 206° |
| 2026-05-05 23:17 | 28.19470 | 123.94228 | 31016 ft | 448 kts | 205° |
| 2026-05-05 23:17 | 28.13739 | 123.91487 | 31017 ft | 446 kts | 206° |
| 2026-05-05 23:18 | 28.08000 | 123.88744 | 31011 ft | 448 kts | 205° |
| 2026-05-05 23:18 | 28.02259 | 123.86003 | 31018 ft | 453 kts | 206° |
| 2026-05-05 23:19 | 27.99321 | 123.84599 | 31028 ft | 465 kts | 205° |
| 2026-05-05 23:19 | 27.96306 | 123.83161 | 31111 ft | 473 kts | 206° |
| 2026-05-05 23:19 | 27.93260 | 123.81709 | 31304 ft | 475 kts | 206° |
| 2026-05-05 23:19 | 27.90215 | 123.80260 | 31710 ft | 472 kts | 206° |
| 2026-05-05 23:20 | 27.87193 | 123.78824 | 32172 ft | 470 kts | 205° |
| 2026-05-05 23:20 | 27.84204 | 123.77403 | 32606 ft | 468 kts | 206° |
| 2026-05-05 23:20 | 27.81173 | 123.75962 | 33000 ft | 468 kts | 206° |
| 2026-05-05 23:20 | 27.78199 | 123.74549 | 33336 ft | 469 kts | 206° |
| 2026-05-05 23:21 | 27.75174 | 123.73113 | 33647 ft | 470 kts | 206° |
| 2026-05-05 23:21 | 27.72154 | 123.71680 | 34006 ft | 468 kts | 206° |
| 2026-05-05 23:21 | 27.69134 | 123.70248 | 34373 ft | 468 kts | 206° |
| 2026-05-05 23:21 | 27.66143 | 123.68831 | 34708 ft | 468 kts | 206° |
| 2026-05-05 23:22 | 27.63137 | 123.67374 | 35000 ft | 467 kts | 210° |
| 2026-05-05 23:22 | 27.60334 | 123.65576 | 35295 ft | 463 kts | 217° |
| 2026-05-05 23:22 | 27.57717 | 123.63496 | 35632 ft | 461 kts | 218° |
| 2026-05-05 23:22 | 27.55131 | 123.61395 | 35888 ft | 462 kts | 218° |
| 2026-05-05 23:23 | 27.52514 | 123.59267 | 36009 ft | 463 kts | 218° |
| 2026-05-05 23:23 | 27.49897 | 123.57143 | 36012 ft | 465 kts | 218° |
| 2026-05-05 23:23 | 27.44653 | 123.52892 | 36018 ft | 467 kts | 218° |
| 2026-05-05 23:24 | 27.39406 | 123.48648 | 36011 ft | 464 kts | 218° |
| 2026-05-05 23:24 | 27.34151 | 123.44402 | 36003 ft | 466 kts | 218° |
| 2026-05-05 23:25 | 27.28863 | 123.40135 | 36011 ft | 468 kts | 218° |
| 2026-05-05 23:25 | 27.23563 | 123.35864 | 36006 ft | 468 kts | 219° |
| 2026-05-05 23:26 | 27.18295 | 123.31624 | 36022 ft | 467 kts | 218° |
| 2026-05-05 23:26 | 27.12979 | 123.27351 | 36018 ft | 468 kts | 218° |
| 2026-05-05 23:27 | 27.07713 | 123.23122 | 36014 ft | 466 kts | 218° |
| 2026-05-05 23:27 | 27.02416 | 123.18874 | 36020 ft | 469 kts | 218° |
| 2026-05-05 23:28 | 26.97097 | 123.14614 | 36010 ft | 468 kts | 218° |
| 2026-05-05 23:28 | 26.91782 | 123.10361 | 36020 ft | 471 kts | 218° |
| 2026-05-05 23:29 | 26.86456 | 123.06105 | 36016 ft | 469 kts | 218° |
| 2026-05-05 23:29 | 26.81150 | 123.01870 | 36018 ft | 469 kts | 218° |
| 2026-05-05 23:30 | 26.75760 | 122.97578 | 36017 ft | 471 kts | 218° |
| 2026-05-05 23:30 | 26.70444 | 122.93358 | 36020 ft | 472 kts | 218° |
| 2026-05-05 23:31 | 26.65090 | 122.89112 | 36026 ft | 472 kts | 218° |
| 2026-05-05 23:31 | 26.59714 | 122.84855 | 36010 ft | 471 kts | 218° |
| 2026-05-05 23:32 | 26.54391 | 122.80643 | 36019 ft | 472 kts | 218° |
| 2026-05-05 23:32 | 26.49021 | 122.76388 | 36005 ft | 472 kts | 219° |
| 2026-05-05 23:33 | 26.43649 | 122.72131 | 36011 ft | 474 kts | 219° |
| 2026-05-05 23:33 | 26.38271 | 122.67878 | 36002 ft | 473 kts | 219° |
| 2026-05-05 23:34 | 26.32895 | 122.63630 | 35994 ft | 473 kts | 219° |
| 2026-05-05 23:34 | 26.27497 | 122.59370 | 35998 ft | 475 kts | 219° |
| 2026-05-05 23:35 | 26.22088 | 122.55106 | 35996 ft | 475 kts | 219° |
| 2026-05-05 23:35 | 26.16683 | 122.50850 | 36002 ft | 477 kts | 219° |
| 2026-05-05 23:36 | 26.11303 | 122.46626 | 35986 ft | 477 kts | 219° |
| 2026-05-05 23:36 | 26.05886 | 122.42380 | 35981 ft | 476 kts | 219° |
| 2026-05-05 23:37 | 26.00448 | 122.38121 | 35989 ft | 477 kts | 219° |
| 2026-05-05 23:37 | 25.95019 | 122.33875 | 36002 ft | 478 kts | 219° |
| 2026-05-05 23:38 | 25.89571 | 122.29617 | 36006 ft | 480 kts | 219° |
| 2026-05-05 23:38 | 25.84123 | 122.25366 | 36004 ft | 479 kts | 219° |
| 2026-05-05 23:39 | 25.78630 | 122.21084 | 35990 ft | 482 kts | 219° |
| 2026-05-05 23:39 | 25.73127 | 122.16799 | 36002 ft | 481 kts | 219° |
| 2026-05-05 23:40 | 25.67627 | 122.12522 | 35995 ft | 482 kts | 219° |
| 2026-05-05 23:40 | 25.62212 | 122.08182 | 35985 ft | 479 kts | 225° |
| 2026-05-05 23:41 | 25.57684 | 122.02872 | 35999 ft | 473 kts | 233° |
| 2026-05-05 23:41 | 25.53353 | 121.97345 | 36006 ft | 477 kts | 233° |
| 2026-05-05 23:42 | 25.49034 | 121.91856 | 36005 ft | 475 kts | 233° |
| 2026-05-05 23:42 | 25.44680 | 121.86330 | 36004 ft | 476 kts | 233° |
| 2026-05-05 23:43 | 25.40339 | 121.80827 | 35999 ft | 477 kts | 233° |
| 2026-05-05 23:43 | 25.35974 | 121.75301 | 36003 ft | 477 kts | 234° |
| 2026-05-05 23:44 | 25.31592 | 121.69761 | 36002 ft | 477 kts | 233° |
| 2026-05-05 23:44 | 25.27243 | 121.64271 | 36002 ft | 477 kts | 233° |
| 2026-05-05 23:45 | 25.22836 | 121.58711 | 36006 ft | 478 kts | 234° |
| 2026-05-05 23:45 | 25.18486 | 121.53231 | 36002 ft | 480 kts | 234° |
| 2026-05-05 23:46 | 25.14145 | 121.47659 | 35996 ft | 479 kts | 235° |
| 2026-05-05 23:46 | 25.09852 | 121.42078 | 35993 ft | 478 kts | 235° |
| 2026-05-05 23:47 | 25.05532 | 121.36474 | 35994 ft | 480 kts | 235° |
| 2026-05-05 23:47 | 25.01220 | 121.30891 | 36003 ft | 478 kts | 235° |
| 2026-05-05 23:48 | 24.96886 | 121.25287 | 36008 ft | 480 kts | 235° |
| 2026-05-05 23:48 | 24.92517 | 121.19647 | 36015 ft | 481 kts | 236° |
| 2026-05-05 23:49 | 24.88205 | 121.14086 | 36011 ft | 483 kts | 236° |
| 2026-05-05 23:49 | 24.83853 | 121.08482 | 36010 ft | 481 kts | 236° |
| 2026-05-05 23:50 | 24.79491 | 121.02868 | 36008 ft | 484 kts | 236° |
| 2026-05-05 23:50 | 24.75126 | 120.97256 | 36005 ft | 482 kts | 236° |
| 2026-05-05 23:51 | 24.70773 | 120.91665 | 36015 ft | 481 kts | 236° |
| 2026-05-05 23:51 | 24.66414 | 120.86074 | 36022 ft | 481 kts | 236° |
| 2026-05-05 23:52 | 24.62062 | 120.80496 | 36025 ft | 485 kts | 236° |
| 2026-05-05 23:52 | 24.57676 | 120.74885 | 36013 ft | 483 kts | 236° |
| 2026-05-05 23:53 | 24.53194 | 120.69396 | 36015 ft | 486 kts | 233° |
| 2026-05-05 23:53 | 24.48456 | 120.64043 | 36012 ft | 487 kts | 233° |
| 2026-05-05 23:54 | 24.43741 | 120.58702 | 36014 ft | 487 kts | 233° |
| 2026-05-05 23:54 | 24.39055 | 120.53385 | 36017 ft | 483 kts | 233° |
| 2026-05-05 23:55 | 24.34354 | 120.48045 | 36014 ft | 486 kts | 233° |
| 2026-05-05 23:55 | 24.29675 | 120.42732 | 36004 ft | 485 kts | 233° |
| 2026-05-05 23:56 | 24.25005 | 120.37434 | 36003 ft | 485 kts | 233° |
| 2026-05-05 23:56 | 24.20301 | 120.32095 | 36017 ft | 485 kts | 233° |
| 2026-05-05 23:57 | 24.15616 | 120.26783 | 36005 ft | 486 kts | 233° |
| 2026-05-05 23:57 | 24.10920 | 120.21469 | 36004 ft | 485 kts | 233° |
| 2026-05-05 23:58 | 24.06237 | 120.16174 | 36009 ft | 488 kts | 233° |
| 2026-05-05 23:58 | 24.01525 | 120.10856 | 36000 ft | 486 kts | 233° |
| 2026-05-05 23:59 | 23.96793 | 120.05518 | 36003 ft | 490 kts | 233° |
| 2026-05-05 23:59 | 23.92053 | 120.00180 | 35998 ft | 489 kts | 233° |
| 2026-05-06 00:00 | 23.87285 | 119.94814 | 35985 ft | 493 kts | 233° |
| 2026-05-06 00:00 | 23.82533 | 119.89477 | 35978 ft | 490 kts | 233° |
| 2026-05-06 00:01 | 23.77750 | 119.84106 | 35972 ft | 492 kts | 233° |
| 2026-05-06 00:01 | 23.73003 | 119.78786 | 35973 ft | 489 kts | 232° |
| 2026-05-06 00:02 | 23.68233 | 119.73444 | 35977 ft | 490 kts | 233° |
| 2026-05-06 00:02 | 23.63502 | 119.68151 | 35984 ft | 489 kts | 232° |
| 2026-05-06 00:03 | 23.58977 | 119.62659 | 35995 ft | 481 kts | 242° |
| 2026-05-06 00:03 | 23.55384 | 119.56566 | 35991 ft | 477 kts | 244° |
| 2026-05-06 00:04 | 23.51846 | 119.50446 | 35993 ft | 479 kts | 244° |
| 2026-05-06 00:04 | 23.48303 | 119.44333 | 35991 ft | 480 kts | 244° |
| 2026-05-06 00:05 | 23.42955 | 119.35123 | 35991 ft | 478 kts | 244° |
| 2026-05-06 00:06 | 23.39395 | 119.29005 | 36006 ft | 480 kts | 243° |
| 2026-05-06 00:06 | 23.35812 | 119.22853 | 35999 ft | 480 kts | 243° |
| 2026-05-06 00:07 | 23.32231 | 119.16714 | 35993 ft | 482 kts | 243° |
| 2026-05-06 00:07 | 23.28657 | 119.10594 | 35982 ft | 480 kts | 243° |
| 2026-05-06 00:08 | 23.25070 | 119.04460 | 35980 ft | 482 kts | 243° |
| 2026-05-06 00:08 | 23.21500 | 118.98363 | 35980 ft | 479 kts | 243° |